Terminal Aerodrome Forecast
Issued by NWS

Home | Current Version | Previous Version | Text Only | Print | Product List | Glossary On
Versions: 1 2 3 4 5 6 7 8 9 10 11 12 13 14 15 16 17
000
FTUS42 KTBW 281134
TAFLAL
TAF
KLAL 281134Z 2812/2912 VRB06KT P6SM -RA VCTS SCT010CB BKN030 OVC080
     FM281900 08011KT 6SM -RA VCTS SCT010CB BKN025 OVC080
     FM290000 VRB06KT P6SM VCSH FEW007 SCT015 BKN025
     FM290600 VRB04KT 6SM BR BCFG SCT007 BKN015=

USA.gov is the U.S. government's official web portal to all federal, state and local government web resources and services.